Hit Tracker is now ESPN Home Run Tracker! Hit Tracker founder Greg Rybarczyk is now collaborating with the ESPN Stats & Information Group to continue tracking all MLB home runs, and helping baseball fans know "How Far It Really Went!™" Please credit any information on this site to ESPN Stats & Information Group. For more information and analysis on home runs, please contact founder Greg Rybarczyk. E-Mail ESPN Home Run Tracker
Main Page | Ballparks | Park Overlays | Glossary | Highlight Homers | Feedback | Bio | 3 Types of HR's | AAA Home Run Derby Last Updated: September 24, 2016, 10:10 pm PST
If you want to know "How Far It Really Went!", then you've come to the right place! Welcome to the ESPN Home Run Tracker, where you can find accurate, transparently verifiable distances for every home run hit in MLB games. Please also check out the ESPN MLB Scoreboard throughout the 2016 season! Contact us at grybar@hittrackeronline.com.
Season:
Ballpark detail for U.S. Cellular Field
Ballpark # of Home Runs HR per game Avg.
True
Distance
Avg.
Speed
Off
Bat
Avg.
Std.
Dist.
U.S. Cellular Field 170 2.30 392 103.3 390.6

Scatter Plot of Home Runs U.S. Cellular Field
 Overlay Ballpark:
Without range rings   With range rings

2016 Season Home Runs for U.S. Cellular Field
Click headers to sort
Date Video Path Hitter Hitter
Team
Pitcher Pitcher
Team
 ^
INN Ballpark Type/
Luck
True
Dist.
Speed
Off
Bat
Elev.
Angle
Horiz.
Angle
Apex Impact Due To: Std.
Dist.
#
Parks
Wind Temp. Alt.
07/08/16 Video View Eaton, Adam CHW Wisler, Matt ATL 5 U.S. Cellula... JE/L 413 99.9 30.0 92.4 99 7 2 2 404 5
07/08/16 Video View Frazier, Todd CHW Wisler, Matt ATL 5 U.S. Cellula... PL 363 99.4 27.7 121.3 67 4 1 1 358 16
07/09/16 Video View Frazier, Todd CHW Teheran, Julio ATL 2 U.S. Cellula... JE 407 101.9 25.0 95.4 80 1 0 1 405 8
08/05/16 Video View Abreu, Jose CHW Gallardo, Yovani BAL 4 U.S. Cellula... PL 406 106.8 24.4 107.0 72 0 0 0 405 30
08/06/16 Video View Saladino, Tyler CHW Tillman, Chris BAL 3 U.S. Cellula... JE 366 103.0 24.5 117.1 60 0 0 1 365 13
08/06/16 Video View Eaton, Adam CHW Worley, Vance BAL 8 U.S. Cellula... PL 389 102.5 27.8 67.4 80 0 1 1 387 30
08/07/16 Video View Abreu, Jose CHW Bundy, Dylan BAL 6 U.S. Cellula... PL 394 100.8 34.3 77.3 125 0 3 3 389 26
05/04/16 Video View Abreu, Jose CHW Buchholz, Clay BOS 1 U.S. Cellula... ND 399 105.7 32.9 115.3 120 1 -6 2 402 30
05/05/16 Video View Garcia, Avisail CHW Owens, Henry BOS 4 U.S. Cellula... JE 368 111.1 19.8 114.1 46 0 -1 0 369 10
07/25/16 Video View Frazier, Todd CHW Arrieta, Jake CHC 6 U.S. Cellula... JE 416 104.1 23.4 91.7 76 0 0 1 414 18
07/26/16 Video View Eaton, Adam CHW Hendricks, Kyle CHC 5 U.S. Cellula... ND 426 107.6 30.7 70.3 111 0 2 2 421 30
04/09/16 Video View Napoli, Mike CLE Sale, Chris CHW 6 U.S. Cellula... PL 421 103.8 27.0 94.3 99 0 -4 1 423 28
04/09/16 Video View Gomes, Yan CLE Sale, Chris CHW 7 U.S. Cellula... JE 349 96.3 29.7 117.5 78 -1 -4 1 352 12
04/21/16 Video View Trout, Mike LAA Danks, John CHW 5 U.S. Cellula... PL 425 105.2 27.4 99.4 97 0 0 1 424 30
04/23/16 Video View Desmond, Ian TEX Rodon, Carlos CHW 2 U.S. Cellula... JE 416 104.5 23.2 88.5 77 1 0 1 416 21
04/24/16 Video View Mazara, Nomar TEX Latos, Mat CHW 1 U.S. Cellula... ND 435 110.7 25.3 75.3 90 -5 1 1 438 30
05/03/16 Video View Ramirez, Hanley BOS Quintana, Jose CHW 5 U.S. Cellula... PL 386 103.1 26.4 67.4 75 1 -1 1 385 28
05/04/16 Video View Ortiz, David BOS Rodon, Carlos CHW 5 U.S. Cellula... PL 410 101.7 29.5 77.1 93 10 -4 1 402 29
05/05/16 Video View Pedroia, Dustin BOS Johnson, Erik CHW 1 U.S. Cellula... PL 345 96.4 34.9 115.5 109 -9 -3 2 355 20
05/05/16 Video View Ramirez, Hanley BOS Johnson, Erik CHW 3 U.S. Cellula... JE 377 101.7 25.0 71.7 68 0 -1 1 377 19
05/05/16 Video View Bradley Jr., Jackie BOS Albers, Matt CHW 6 U.S. Cellula... JE 381 101.3 24.4 103.7 68 0 -1 0 382 10
05/06/16 Video View Arcia, Oswaldo MIN Latos, Mat CHW 4 U.S. Cellula... PL 398 103.8 26.4 108.5 77 1 0 1 396 30
05/17/16 Video View White, Tyler HOU Rodon, Carlos CHW 4 U.S. Cellula... JE 390 100.7 25.8 101.5 79 0 -1 1 390 11
05/17/16 Video View White, Tyler HOU Rodon, Carlos CHW 6 U.S. Cellula... JE 378 101.1 24.6 104.6 68 0 -1 0 379 9
05/17/16 Video View Gattis, Evan HOU Albers, Matt CHW 11 U.S. Cellula... PL 371 107.0 22.9 120.0 55 1 -1 0 370 24
05/18/16 Video View Rasmus, Colby HOU Latos, Mat CHW 5 U.S. Cellula... ND 412 105.2 29.3 72.7 101 0 -3 2 413 30
05/18/16 Video View Castro, Jason HOU Latos, Mat CHW 6 U.S. Cellula... ND 408 108.8 27.5 60.3 83 0 -2 1 409 30
05/19/16 Video View Gattis, Evan HOU Sale, Chris CHW 8 U.S. Cellula... PL 398 100.7 28.2 100.9 92 0 -1 1 398 26
05/21/16 Video View Cain, Lorenzo KC Gonzalez, Miguel CHW 6 U.S. Cellula... PL 414 103.6 24.7 95.7 79 1 0 1 413 21
05/23/16 Video View Napoli, Mike CLE Latos, Mat CHW 2 U.S. Cellula... PL 352 96.1 34.2 112.9 106 -8 1 2 357 15
05/23/16 Video View Byrd, Marlon CLE Latos, Mat CHW 5 U.S. Cellula... JE 409 105.4 22.0 84.5 68 1 1 0 408 14
05/23/16 Video View Ramirez, Jose CLE Albers, Matt CHW 8 U.S. Cellula... PL 401 100.6 28.5 79.6 93 0 1 1 399 26
05/23/16 Video View Ramirez, Jose CLE Johnson, Erik CHW 2 U.S. Cellula... PL 392 106.6 23.1 71.4 63 0 0 0 391 28
05/23/16 Video View Davis, Rajai CLE Johnson, Erik CHW 5 U.S. Cellula... PL 376 100.0 35.6 107.7 127 0 -1 3 374 24
05/23/16 Video View Uribe, Juan CLE Johnson, Erik CHW 7 U.S. Cellula... PL 416 102.6 29.3 97.1 105 0 -1 1 415 30
05/24/16 Video View Gimenez, Chris CLE Sale, Chris CHW 4 U.S. Cellula... ND 413 106.0 29.3 111.3 97 -3 2 1 411 30
06/07/16 Video View Rendon, Anthony WSH Latos, Mat CHW 4 U.S. Cellula... JE 377 100.6 24.6 104.3 67 0 0 1 377 6
06/08/16 Video View Zimmerman, Ryan WSH Shields, James CHW 1 U.S. Cellula... ND 396 110.8 22.9 116.1 61 0 -1 1 396 30
06/08/16 Video View Drew, Stephen WSH Shields, James CHW 2 U.S. Cellula... PL 361 97.0 33.2 68.1 103 -4 -2 2 365 24
06/08/16 Video View Espinosa, Danny WSH Shields, James CHW 2 U.S. Cellula... ND 391 104.5 30.1 58.9 90 0 -2 1 391 30
06/08/16 Video View Werth, Jayson WSH Robertson, David CHW 8 U.S. Cellula... PL 373 99.6 28.8 113.0 81 0 -1 1 374 28
06/09/16 Video View Murphy, Daniel WSH Gonzalez, Miguel CHW 5 U.S. Cellula... PL 379 101.2 36.4 73.9 136 0 -1 3 377 26
06/10/16 Video View Hosmer, Eric KC Sale, Chris CHW 1 U.S. Cellula... PL 359 100.8 25.9 120.8 62 0 2 1 357 13
06/10/16 Video View Hosmer, Eric KC Sale, Chris CHW 4 U.S. Cellula... JE 363 96.9 28.7 111.6 76 0 1 1 361 11
06/10/16 Video View Perez, Salvador KC Sale, Chris CHW 6 U.S. Cellula... PL 412 101.0 30.0 94.9 105 0 3 1 408 21
06/11/16 Video View Cuthbert, Cheslor KC Quintana, Jose CHW 3 U.S. Cellula... JE 357 95.2 30.3 64.3 77 4 2 1 350 9
06/11/16 Video View Morales, Kendrys KC Quintana, Jose CHW 5 U.S. Cellula... JE 368 97.9 27.2 68.5 67 5 1 1 361 3
06/11/16 Video View Cuthbert, Cheslor KC Quintana, Jose CHW 8 U.S. Cellula... JE/L 394 97.9 30.4 99.1 96 3 3 1 387 4
06/12/16 Video View Perez, Salvador KC Putnam, Zach CHW 9 U.S. Cellula... PL 364 108.2 22.4 127.6 52 0 0 0 364 28
06/13/16 Video View Kinsler, Ian DET Shields, James CHW 1 U.S. Cellula... JE 380 101.6 24.6 105.7 67 0 0 0 380 13
06/15/16 Video View Iglesias, Jose DET Sale, Chris CHW 3 U.S. Cellula... PL 368 97.3 29.8 68.5 84 0 1 1 366 21
06/25/16 Video View Travis, Devon TOR Gonzalez, Miguel CHW 2 U.S. Cellula... PL 409 102.6 29.1 99.8 105 -7 3 2 411 30
06/26/16 Video View Tulowitzki, Troy TOR Sale, Chris CHW 8 U.S. Cellula... JE 344 95.5 28.9 123.6 66 3 2 1 339 3
06/26/16 Video View Lake, Junior TOR Sale, Chris CHW 8 U.S. Cellula... JE 417 109.1 20.2 84.8 60 -1 0 0 418 21
06/28/16 Video View Dozier, Brian MIN Quintana, Jose CHW 2 U.S. Cellula... PL 360 102.8 39.1 111.0 152 0 -2 4 358 15
06/28/16 Video View Dozier, Brian MIN Quintana, Jose CHW 6 U.S. Cellula... JE 349 98.3 27.4 123.0 65 0 -1 0 349 10
06/29/16 Video View Nunez, Eduardo MIN Shields, James CHW 1 U.S. Cellula... PL 384 103.8 33.6 113.7 121 -13 1 2 393 30
06/30/16 Video View Dozier, Brian MIN Rodon, Carlos CHW 4 U.S. Cellula... JE 411 102.3 25.4 87.4 88 -2 0 0 412 19
06/30/16 Video View Grossman, Robbie MIN Rodon, Carlos CHW 4 U.S. Cellula... JE 353 98.3 27.9 60.6 71 -3 0 0 355 23
07/04/16 Video View Headley, Chase NYY Shields, James CHW 2 U.S. Cellula... PL 364 102.9 25.7 56.2 62 0 0 1 363 29
07/05/16 Video View Headley, Chase NYY Rodon, Carlos CHW 3 U.S. Cellula... PL 411 113.0 19.9 102.3 56 0 0 0 411 30
07/05/16 Video View Romine, Austin NYY Rodon, Carlos CHW 5 U.S. Cellula... PL 401 104.4 27.2 110.5 82 -1 1 1 399 30
07/08/16 Video View Freeman, Freddie ATL Sale, Chris CHW 1 U.S. Cellula... PL 377 97.6 33.8 109.2 107 3 3 2 369 17
07/08/16 Video View Flowers, Tyler ATL Sale, Chris CHW 2 U.S. Cellula... ND 447 115.8 18.7 93.9 62 0 0 0 447 30
07/08/16 Video View Markakis, Nick ATL Sale, Chris CHW 4 U.S. Cellula... PL 374 98.3 34.8 69.3 113 1 3 2 368 23
07/09/16 Video View Beckham, Gordon ATL Quintana, Jose CHW 1 U.S. Cellula... PL 365 102.2 26.4 124.0 66 0 0 1 363 27
07/09/16 Video View Francoeur, Jeff ATL Quintana, Jose CHW 4 U.S. Cellula... PL 386 103.4 24.9 109.4 68 1 0 1 384 26
07/09/16 Video View Freeman, Freddie ATL Quintana, Jose CHW 6 U.S. Cellula... JE 342 95.6 29.0 125.6 67 3 0 1 337 1
07/10/16 Video View Francoeur, Jeff ATL Shields, James CHW 2 U.S. Cellula... PL 409 101.6 29.7 98.9 104 -2 1 1 408 28
07/10/16 Video View Peterson, Jace ATL Shields, James CHW 3 U.S. Cellula... PL 390 106.9 24.0 65.8 64 0 1 1 388 29
07/21/16 Video View Cabrera, Miguel DET Shields, James CHW 5 U.S. Cellula... PL 410 104.5 32.7 97.7 135 -16 4 3 418 30
07/21/16 Video View Kinsler, Ian DET Shields, James CHW 5 U.S. Cellula... PL 422 104.1 24.8 92.2 89 -2 1 1 421 27
07/23/16 Video View Upton, Justin DET Kahnle, Tommy CHW 6 U.S. Cellula... PL 396 117.0 18.9 69.4 48 0 1 1 395 27
07/24/16 Video View Romine, Andrew DET Jones, Nate CHW 8 U.S. Cellula... JE 386 101.1 25.2 76.3 78 -2 1 0 385 16
07/24/16 Video View Castellanos, Nick DET Robertson, David CHW 9 U.S. Cellula... ND 409 108.5 24.6 111.1 71 -1 1 1 407 30
07/24/16 Video View Collins, Tyler DET Robertson, David CHW 9 U.S. Cellula... PL 410 106.2 25.6 72.3 79 -1 2 1 407 30
07/24/16 Video View Saltalamacchia, Jarrod DET Robertson, David CHW 9 U.S. Cellula... PL 372 99.5 29.1 68.9 89 -9 2 1 377 26
07/25/16 Video View Baez, Javier CHC Gonzalez, Miguel CHW 7 U.S. Cellula... PL 379 108.7 23.1 122.5 57 0 0 1 378 30
08/05/16 Video View Alvarez, Pedro BAL Gonzalez, Miguel CHW 2 U.S. Cellula... JE 415 104.0 23.5 91.9 75 0 0 0 415 19
08/05/16 Video View Alvarez, Pedro BAL Kahnle, Tommy CHW 8 U.S. Cellula... ND 451 115.2 25.9 68.0 89 0 1 1 449 30
08/07/16 Video View Machado, Manny BAL Shields, James CHW 1 U.S. Cellula... PL 425 104.4 25.6 93.5 91 -1 1 1 424 26
08/07/16 Video View Hardy, J.J. BAL Shields, James CHW 2 U.S. Cellula... PL 424 106.5 22.9 95.1 77 1 0 1 423 26
08/07/16 Video View Machado, Manny BAL Shields, James CHW 2 U.S. Cellula... PL 364 105.5 23.3 121.4 56 0 1 1 363 16
08/07/16 Video View Davis, Chris BAL Shields, James CHW 2 U.S. Cellula... ND 435 107.3 31.8 79.6 128 0 3 2 430 29
08/07/16 Video View Machado, Manny BAL Albers, Matt CHW 3 U.S. Cellula... PL 408 108.0 21.9 101.3 64 0 0 0 407 28
08/19/16 Video View Davis, Khris OAK Shields, James CHW 3 U.S. Cellula... ND 395 102.9 32.1 114.5 104 0 2 2 391 30
08/19/16 Video View Vogt, Stephen OAK Shields, James CHW 5 U.S. Cellula... JE 388 106.8 21.8 74.6 58 0 0 0 388 21
08/19/16 Video View Alonso, Yonder OAK Shields, James CHW 5 U.S. Cellula... ND 407 108.7 25.0 65.8 72 0 1 1 405 30
08/20/16 Video View Valencia, Danny OAK Jones, Nate CHW 9 U.S. Cellula... PL 412 106.5 23.4 79.0 72 0 0 1 412 28
08/21/16 Video View Davis, Khris OAK Quintana, Jose CHW 4 U.S. Cellula... PL 424 104.9 26.9 80.0 89 2 1 1 421 29
08/23/16 Video View Galvis, Freddy PHI Beck, Chris CHW 7 U.S. Cellula... PL 418 105.4 32.0 76.3 124 -6 2 2 416 30
08/24/16 Video View Hernandez, Cesar PHI Shields, James CHW 3 U.S. Cellula... JE 340 93.8 31.2 121.8 77 0 2 1 337 3
08/24/16 Video View Joseph, Tommy PHI Shields, James CHW 6 U.S. Cellula... PL 394 99.2 32.5 100.4 112 0 2 2 390 18
08/25/16 Video View Cano, Robinson SEA Ranaudo, Anthony CHW 4 U.S. Cellula... PL 417 104.9 25.7 79.7 85 -2 0 1 417 29
08/26/16 Video View Gutierrez, Franklin SEA Sale, Chris CHW 2 U.S. Cellula... JE 399 101.3 25.3 82.5 78 0 0 1 399 18
08/28/16 Video View Cano, Robinson SEA Rodon, Carlos CHW 6 U.S. Cellula... PL 380 100.8 34.5 64.8 114 0 2 2 375 29
09/05/16 Video View Cabrera, Miguel DET Sale, Chris CHW 1 U.S. Cellula... PL 399 104.3 24.0 76.9 72 0 1 0 398 26
09/05/16 Video View Cabrera, Miguel DET Sale, Chris CHW 3 U.S. Cellula... JE 404 111.5 19.4 100.2 53 -1 1 1 404 20
09/05/16 Video View Upton, Justin DET Beck, Chris CHW 11 U.S. Cellula... PL 396 101.1 31.0 75.0 106 -5 3 2 395 29
09/07/16 Video View Upton, Justin DET Quintana, Jose CHW 2 U.S. Cellula... PL 376 105.2 25.6 124.7 64 0 1 1 374 30
09/10/16 Video View Hosmer, Eric KC Shields, James CHW 1 U.S. Cellula... PL 429 103.5 31.3 90.9 119 6 0 2 421 27
09/10/16 Video View Gordon, Alex KC Shields, James CHW 4 U.S. Cellula... ND 418 107.2 29.7 61.1 90 10 0 1 407 30
09/11/16 Video View Morales, Kendrys KC Sale, Chris CHW 2 U.S. Cellula... PL 360 95.7 33.9 112.3 101 1 1 2 357 11
09/11/16 Video View Hosmer, Eric KC Sale, Chris CHW 6 U.S. Cellula... PL 391 99.4 33.3 99.3 120 -3 1 2 390 21
09/12/16 Video View Napoli, Mike CLE Smith, Blake CHW 8 U.S. Cellula... ND 412 106.9 30.4 115.8 101 0 0 2 410 30
09/13/16 Video View Guyer, Brandon CLE Quintana, Jose CHW 2 U.S. Cellula... JE 368 97.0 28.9 109.1 79 1 0 1 366 14
09/14/16 Video View Crisp, Coco CLE Rodon, Carlos CHW 6 U.S. Cellula... PL 382 99.9 29.7 110.6 89 0 0 1 381 30
04/08/16 Video View Frazier, Todd CHW Salazar, Danny CLE 4 U.S. Cellula... PL 386 101.0 31.5 113.5 97 5 -7 -5 385 30
04/09/16 Video View Abreu, Jose CHW Anderson, Cody CLE 3 U.S. Cellula... PL 404 108.2 22.0 103.7 65 3 -2 0 403 28
04/09/16 Video View Garcia, Avisail CHW Shaw, Bryan CLE 7 U.S. Cellula... JE/L 368 98.7 26.0 73.5 70 0 -2 1 369 10
05/23/16 Video View Frazier, Todd CHW Clevinger, Mike CLE 1 U.S. Cellula... ND 402 104.4 31.7 111.1 111 -5 1 2 403 30
05/23/16 Video View Lawrie, Brett CHW Clevinger, Mike CLE 5 U.S. Cellula... ND 415 104.6 29.3 104.9 103 -1 1 2 414 30
05/24/16 Video View Eaton, Adam CHW Tomlin, Josh CLE 1 U.S. Cellula... PL 400 103.8 24.3 77.6 73 1 1 1 398 25
05/25/16 Video View Cabrera, Melky CHW Shaw, Bryan CLE 8 U.S. Cellula... PL 384 107.2 24.5 59.0 63 0 1 1 382 30
09/12/16 Video View Garcia, Avisail CHW Carrasco, Carlos CLE 4 U.S. Cellula... PL 426 106.3 24.7 98.1 83 0 1 1 425 30
09/12/16 Video View Eaton, Adam CHW McAllister, Zach CLE 6 U.S. Cellula... PL 403 103.5 32.0 72.9 116 -4 1 2 403 30
09/12/16 Video View Frazier, Todd CHW Adams, Austin CLE 8 U.S. Cellula... PL 402 100.3 31.0 97.4 110 -1 1 2 401 21
09/15/16 Video View Abreu, Jose CHW Clevinger, Mike CLE 4 U.S. Cellula... ND 419 106.5 25.9 104.5 83 0 0 1 417 30
06/13/16 Video View Abreu, Jose CHW Boyd, Matt DET 3 U.S. Cellula... PL 419 105.4 24.0 97.6 76 1 0 1 417 26
06/13/16 Video View Navarro, Dioner CHW Boyd, Matt DET 4 U.S. Cellula... PL 387 101.0 33.4 109.6 114 0 0 2 385 30
06/14/16 Video View Saladino, Tyler CHW Lowe, Mark DET 9 U.S. Cellula... PL 377 102.5 28.0 118.9 77 -3 0 1 378 30
07/22/16 Video View Morneau, Justin CHW Fulmer, Michael DET 5 U.S. Cellula... JE 376 105.6 22.4 70.1 56 0 1 0 376 12
07/23/16 Video View Garcia, Avisail CHW Boyd, Matt DET 4 U.S. Cellula... JE 403 103.8 22.3 95.3 69 1 0 0 401 8
07/24/16 Video View Eaton, Adam CHW Sanchez, Anibal DET 2 U.S. Cellula... JE 372 113.6 19.0 64.5 44 -1 1 1 370 12
09/05/16 Video View Avila, Alex CHW Verlander, Justin DET 7 U.S. Cellula... PL 408 105.0 23.8 100.3 73 -1 0 0 407 30
09/06/16 Video View Abreu, Jose CHW Boyd, Matt DET 2 U.S. Cellula... ND 426 109.9 26.5 112.2 84 0 2 1 423 30
05/17/16 Video View Abreu, Jose CHW Keuchel, Dallas HOU 4 U.S. Cellula... PL 430 106.2 24.0 87.7 84 0 -1 0 430 27
05/22/16 Video View Frazier, Todd CHW Ventura, Yordano KC 4 U.S. Cellula... JE 345 93.9 33.4 62.3 90 0 0 1 344 13
06/10/16 Video View Cabrera, Melky CHW Kennedy, Ian KC 3 U.S. Cellula... PL 423 104.4 25.1 85.6 84 0 2 1 421 24
06/10/16 Video View Lawrie, Brett CHW Kennedy, Ian KC 4 U.S. Cellula... PL 385 104.0 37.1 113.7 138 0 6 4 375 30
06/10/16 Video View Avila, Alex CHW Kennedy, Ian KC 4 U.S. Cellula... PL 377 97.9 34.9 105.2 118 -1 4 2 372 17
06/10/16 Video View Avila, Alex CHW Kennedy, Ian KC 6 U.S. Cellula... JE 369 110.4 20.6 60.9 47 1 1 2 367 15
06/12/16 Video View Abreu, Jose CHW Ventura, Yordano KC 6 U.S. Cellula... PL 435 106.5 24.4 91.4 86 0 0 0 434 28
04/19/16 Video View Frazier, Todd CHW Shoemaker, Matt LAA 2 U.S. Cellula... PL 387 107.0 23.9 112.9 67 -2 -1 1 390 30
04/19/16 Video View Abreu, Jose CHW Shoemaker, Matt LAA 4 U.S. Cellula... JE 411 102.1 26.6 96.5 92 2 -2 1 410 18
04/20/16 Video View Saladino, Tyler CHW Richards, Garrett LAA 1 U.S. Cellula... PL 372 102.4 26.4 118.4 68 0 0 1 371 29
04/21/16 Video View Cabrera, Melky CHW Weaver, Jered LAA 7 U.S. Cellula... ND 417 108.0 25.3 72.2 79 0 -1 1 416 30
04/21/16 Video View Frazier, Todd CHW Street, Huston LAA 9 U.S. Cellula... PL 404 101.2 28.0 79.3 89 2 0 1 401 26
05/06/16 Video View Abreu, Jose CHW Nolasco, Ricky MIN 3 U.S. Cellula... PL 407 102.9 31.8 105.5 113 0 1 2 403 30
05/07/16 Video View Frazier, Todd CHW Santana, Ervin MIN 3 U.S. Cellula... ND 385 105.8 27.2 124.5 73 0 -1 1 385 30
06/29/16 Video View Lawrie, Brett CHW Nolasco, Ricky MIN 2 U.S. Cellula... JE 394 102.7 24.8 77.1 72 0 0 0 393 24
06/29/16 Video View Saladino, Tyler CHW Nolasco, Ricky MIN 5 U.S. Cellula... PL 420 110.5 21.5 101.1 65 0 0 0 419 30
06/29/16 Video View Frazier, Todd CHW Nolasco, Ricky MIN 6 U.S. Cellula... PL 345 94.4 35.6 117.4 103 0 0 2 342 6
06/30/16 Video View Frazier, Todd CHW Milone, Tommy MIN 2 U.S. Cellula... JE 362 105.2 22.6 117.4 53 0 0 0 362 10
07/04/16 Video View Anderson, Tim CHW Sabathia, CC NYY 3 U.S. Cellula... PL 424 103.9 26.4 84.9 90 1 1 1 421 24
07/04/16 Video View Navarro, Dioner CHW Sabathia, CC NYY 5 U.S. Cellula... PL 380 102.7 26.4 115.2 71 0 1 1 378 29
08/20/16 Video View Abreu, Jose CHW Detwiler, Ross OAK 1 U.S. Cellula... JE 373 106.8 21.3 69.8 52 1 0 0 371 6
08/21/16 Video View Abreu, Jose CHW Neal, Zach OAK 4 U.S. Cellula... PL 394 108.5 22.2 108.7 58 1 1 1 392 30
08/23/16 Video View Abreu, Jose CHW Thompson, Jake PHI 5 U.S. Cellula... PL 400 105.1 24.5 105.5 72 0 1 1 399 30
08/23/16 Video View Morneau, Justin CHW Thompson, Jake PHI 5 U.S. Cellula... PL 382 106.3 23.5 66.1 61 0 0 1 381 25
08/24/16 Video View Navarro, Dioner CHW Eickhoff, Jerad PHI 6 U.S. Cellula... PL 376 98.3 34.2 71.2 112 0 2 2 372 23
08/26/16 Video View Frazier, Todd CHW Hernandez, Felix SEA 7 U.S. Cellula... PL 403 102.8 32.4 106.4 116 0 1 2 400 30
08/27/16 Video View Abreu, Jose CHW Miranda, Ariel SEA 1 U.S. Cellula... PL 440 110.0 21.4 88.0 72 0 0 0 439 28
08/27/16 Video View Garcia, Avisail CHW Nuno, Vidal SEA 5 U.S. Cellula... PL 430 110.4 20.5 94.0 65 -1 0 0 431 28
08/27/16 Video View Avila, Alex CHW Nuno, Vidal SEA 5 U.S. Cellula... JE 351 93.9 32.0 114.7 84 3 0 1 346 2
08/27/16 Video View Saladino, Tyler CHW Nuno, Vidal SEA 7 U.S. Cellula... PL 361 97.9 28.8 115.8 76 -2 1 1 361 17
04/23/16 Video View Cabrera, Melky CHW Lewis, Colby TEX 2 U.S. Cellula... PL 400 103.2 25.5 77.1 78 0 -1 1 401 28
04/23/16 Video View Frazier, Todd CHW Dyson, Sam TEX 8 U.S. Cellula... PL 366 98.6 29.5 114.8 83 -1 -2 1 368 24
04/24/16 Video View Navarro, Dioner CHW Holland, Derek TEX 3 U.S. Cellula... PL 384 97.9 34.3 106.6 111 9 1 2 372 22
06/24/16 Video View Cabrera, Melky CHW Sanchez, Aaron TOR 5 U.S. Cellula... PL 358 95.6 34.0 67.5 102 0 0 2 356 15
06/25/16 Video View Navarro, Dioner CHW Dickey, R.A. TOR 2 U.S. Cellula... JE 354 106.2 22.2 54.0 50 0 1 1 353 16
06/25/16 Video View Shuck, J.B. CHW Dickey, R.A. TOR 2 U.S. Cellula... PL 412 105.5 24.1 79.0 75 0 1 0 410 28
06/25/16 Video View Lawrie, Brett CHW Dickey, R.A. TOR 2 U.S. Cellula... ITP/L 393 98.9 32.4 96.4 116 -5 4 2 392 7
06/25/16 Video View Lawrie, Brett CHW Dickey, R.A. TOR 4 U.S. Cellula... PL 371 98.1 28.7 109.8 81 -3 2 1 370 20
06/25/16 Video View Anderson, Tim CHW Storen, Drew TOR 7 U.S. Cellula... PL 360 96.6 35.3 108.9 115 -8 5 2 360 13
06/25/16 Video View Avila, Alex CHW Grilli, Jason TOR 8 U.S. Cellula... PL 364 96.8 31.4 114.6 89 -3 3 1 362 23
06/25/16 Video View Eaton, Adam CHW Osuna, Roberto TOR 9 U.S. Cellula... JE 395 106.9 20.9 100.4 58 0 0 0 394 12
06/26/16 Video View Anderson, Tim CHW Stroman, Marcus TOR 5 U.S. Cellula... JE 368 98.5 26.2 108.1 68 1 1 1 366 2
06/26/16 Video View Shuck, J.B. CHW Schultz, Bo TOR 8 U.S. Cellula... PL 367 98.4 29.8 59.5 76 4 2 1 360 25
06/07/16 Video View Frazier, Todd CHW Ross, Joe WSH 2 U.S. Cellula... JE 419 104.3 24.3 87.8 82 0 0 1 419 25


About HitTracker | Contact Us
© 2006-2016 HitTrackerOnline